Flight Track Log - Related Links

Times and Time Zones

All times are in EDT time to prevent confusion due to time zone crossing. See the ASA123 flight status page for this flight to view local times or setup timezone preferences in your user account.

Time Position Orientation Groundspeed Altitude Reporting Facility
EDT Latitude Longitude Course Direction KTS MPH feet Rate Location/Type
Wed 04:33:46 PM 47.4681 -122.3086 North 161 185 1,100  Level Seattle Center
Wed 04:34:33 PM 47.5028 -122.3078 North 163 188 2,500 1,944 Climbing Seattle Center
Wed 04:35:34 PM 47.5717 -122.3264 350° North 247 284 4,600 2,410 Climbing Seattle Center
Wed 04:36:35 PM 47.6200 -122.4103 311° West 281 323 7,400 2,262 Climbing Seattle Center
Wed 04:37:36 PM 47.6231 -122.5278 272° West 289 333 9,200 1,721 Climbing Seattle Center
Wed 04:38:37 PM 47.6297 -122.6500 275° West 299 344 10,900 2,164 Climbing Seattle Center
Wed 04:39:38 PM 47.6375 -122.8042 274° West 350 403 13,600 2,634 Climbing Seattle Center
Wed 04:40:40 PM 47.6575 -122.9461 282° West 361 415 16,300 2,537 Climbing Seattle Center
Wed 04:41:41 PM 47.7128 -123.0778 302° West 375 432 18,800 2,459 Climbing Seattle Center
Wed 04:42:42 PM 47.7692 -123.2117 302° West 383 441 21,300 2,311 Climbing Seattle Center
Wed 04:43:43 PM 47.8281 -123.3536 302° West 401 461 23,500 2,016 Climbing Seattle Center
Wed 04:44:44 PM 47.8889 -123.4967 302° West 412 474 25,400 1,869 Climbing Seattle Center
Wed 04:45:45 PM 47.9525 -123.6506 302° West 426 490 27,300 1,721 Climbing Seattle Center
Wed 04:46:46 PM 48.0464 -123.7658 321° Northwest 444 511 28,900 1,073 Climbing Seattle Center
Wed 04:47:48 PM 48.1700 -123.8897 326° Northwest 450 518 29,500 1,854 Climbing Seattle Center
Wed 04:48:49 PM 48.2489 -123.9747 324° Northwest 442 509 32,700 2,410 Climbing Seattle Center
Wed 04:49:50 PM 48.3678 -124.0969 326° Northwest 437 503 34,400 1,579 Climbing Seattle Center
Wed 04:50:24 PM 48.4000 -124.1500 312° West 440 506 35,200 1,021 Climbing Vancouver Center
Wed 04:51:24 PM 48.5000 -124.2500 326° Northwest 440 506 36,000 400 Climbing Vancouver Center
Wed 04:52:24 PM 48.6000 -124.3833 319° Northwest 440 506 36,000  Level Vancouver Center
Wed 04:53:24 PM 48.7000 -124.4833 327° Northwest 440 506 36,000  Level Vancouver Center
Wed 04:54:24 PM 48.8000 -124.5833 327° Northwest 440 506 36,000  Level Vancouver Center
Wed 04:55:24 PM 48.9000 -124.6833 327° Northwest 430 495 36,000  Level Vancouver Center
Wed 04:56:24 PM 49.0000 -124.7833 327° Northwest 430 495 36,000  Level Vancouver Center
Wed 04:57:24 PM 49.1000 -124.9000 323° Northwest 430 495 36,000  Level Vancouver Center
Wed 04:58:24 PM 49.2000 -125.0000 327° Northwest 420 483 36,000  Level Vancouver Center
Wed 04:59:24 PM 49.2833 -125.1000 322° Northwest 420 483 36,000  Level Vancouver Center
Wed 05:00:24 PM 49.3833 -125.2167 323° Northwest 420 483 36,000  Level Vancouver Center
Wed 05:01:24 PM 49.4833 -125.3167 327° Northwest 420 483 36,000  Level Vancouver Center
Wed 05:02:24 PM 49.5833 -125.4167 327° Northwest 420 483 36,000  Level Vancouver Center
Wed 05:03:24 PM 49.6667 -125.5333 318° Northwest 420 483 36,000  Level Vancouver Center
Wed 05:04:24 PM 49.7667 -125.6333 327° Northwest 420 483 36,000  Level Vancouver Center
Wed 05:05:24 PM 49.8500 -125.7333 322° Northwest 420 483 36,000  Level Vancouver Center
Wed 05:06:24 PM 49.9333 -125.8500 318° Northwest 420 483 36,000  Level Vancouver Center
Wed 05:07:24 PM 50.0333 -125.9500 327° Northwest 420 483 36,000  Level Vancouver Center
Wed 05:08:24 PM 50.1333 -126.0667 323° Northwest 420 483 36,000  Level Vancouver Center
Wed 05:09:24 PM 50.2333 -126.1667 327° Northwest 420 483 36,000  Level Vancouver Center
Wed 05:10:24 PM 50.3333 -126.2833 323° Northwest 420 483 36,000  Level Vancouver Center
Wed 05:11:24 PM 50.4167 -126.4000 318° Northwest 420 483 36,000  Level Vancouver Center
Wed 05:12:24 PM 50.5167 -126.5000 328° Northwest 420 483 36,000  Level Vancouver Center
Wed 05:13:24 PM 50.6000 -126.6167 318° Northwest 420 483 36,000  Level Vancouver Center
Wed 05:14:24 PM 50.7000 -126.7333 324° Northwest 420 483 36,000  Level Vancouver Center
Wed 05:15:24 PM 50.7833 -126.8333 323° Northwest 420 483 36,000  Level Vancouver Center
Wed 05:16:24 PM 50.8833 -126.9500 324° Northwest 420 483 36,000  Level Vancouver Center
Wed 05:17:24 PM 50.9833 -127.0667 324° Northwest 420 483 36,000  Level Vancouver Center
Wed 05:18:24 PM 51.0833 -127.1667 328° Northwest 420 483 36,000  Level Vancouver Center
Wed 05:19:24 PM 51.1500 -127.2833 312° West 420 483 36,000  Level Vancouver Center
Wed 05:20:24 PM 51.2500 -127.4000 324° Northwest 420 483 36,000  Level Vancouver Center
Wed 05:21:24 PM 51.3500 -127.5167 324° Northwest 420 483 36,000  Level Vancouver Center
Wed 05:22:24 PM 51.4333 -127.6333 319° Northwest 420 483 36,000  Level Vancouver Center
Wed 05:23:15 PM 51.5167 -127.7167 328° Northwest 420 483 36,000  Level Vancouver Center
Wed 05:24:15 PM 51.6000 -127.8333 319° Northwest 420 483 36,000  Level Vancouver Center
Wed 05:25:15 PM 51.7000 -127.9500 324° Northwest 420 483 36,000 250 Level Vancouver Center
Wed 05:26:15 PM 51.8000 -128.0667 324° Northwest 420 483 36,500 700 Climbing Vancouver Center
Wed 05:27:15 PM 51.9000 -128.1833 324° Northwest 430 495 37,400 750 Climbing Vancouver Center
Wed 05:28:15 PM 51.9833 -128.3000 319° Northwest 430 495 38,000 300 Climbing Vancouver Center
Wed 05:29:15 PM 52.0667 -128.4167 319° Northwest 420 483 38,000  Level Vancouver Center
Wed 05:30:15 PM 52.1667 -128.5333 324° Northwest 420 483 38,000  Level Vancouver Center
Wed 05:31:15 PM 52.2667 -128.6500 324° Northwest 420 483 38,000  Level Vancouver Center
Wed 05:32:15 PM 52.3500 -128.7833 316° Northwest 430 495 38,000  Level Vancouver Center
Wed 05:33:15 PM 52.4500 -128.9000 325° Northwest 430 495 38,000  Level Vancouver Center
Wed 05:34:15 PM 52.5333 -129.0167 320° Northwest 430 495 38,000  Level Vancouver Center
Wed 05:35:15 PM 52.6500 -129.1333 329° Northwest 440 506 38,000  Level Vancouver Center
Wed 05:36:15 PM 52.7167 -129.2500 313° West 430 495 38,000  Level Vancouver Center
Wed 05:37:15 PM 52.8167 -129.4000 318° Northwest 430 495 38,000  Level Vancouver Center
Wed 05:38:15 PM 52.9167 -129.5333 321° Northwest 430 495 38,000  Level Vancouver Center
Wed 05:39:15 PM 53.0000 -129.6500 320° Northwest 430 495 38,000  Level Vancouver Center
Wed 05:40:15 PM 53.1000 -129.7833 321° Northwest 430 495 38,000  Level Vancouver Center
Wed 05:41:15 PM 53.2000 -129.9000 325° Northwest 430 495 38,000  Level Vancouver Center
Wed 05:42:15 PM 53.2833 -130.0333 316° Northwest 430 495 38,000  Level Vancouver Center
Wed 05:43:15 PM 53.3833 -130.1500 325° Northwest 430 495 38,000  Level Vancouver Center
Wed 05:44:15 PM 53.4667 -130.2833 316° Northwest 430 495 38,000  Level Vancouver Center
Wed 05:45:15 PM 53.5500 -130.4000 320° Northwest 430 495 38,000  Level Vancouver Center
Wed 05:46:15 PM 53.6667 -130.5667 320° Northwest 430 495 38,000  Level Vancouver Center
Wed 05:47:15 PM 53.7333 -130.6833 314° West 440 506 38,000  Level Vancouver Center
Wed 05:48:15 PM 53.8500 -130.8167 326° Northwest 440 506 38,000  Level Vancouver Center
Wed 05:49:15 PM 53.9167 -130.9500 310° West 440 506 38,000  Level Vancouver Center
Wed 05:50:15 PM 54.0167 -131.0833 322° Northwest 440 506 38,000  Level Vancouver Center
Wed 05:51:15 PM 54.1167 -131.2000 326° Northwest 440 506 38,000  Level Vancouver Center
Wed 05:52:15 PM 54.2000 -131.3333 317° Northwest 440 506 38,000  Level Vancouver Center
Wed 05:53:15 PM 54.3000 -131.5000 316° Northwest 450 518 38,000  Level Vancouver Center
Wed 05:54:15 PM 54.4000 -131.6333 322° Northwest 450 518 38,000  Level Vancouver Center
Wed 05:55:15 PM 54.4833 -131.7667 317° Northwest 450 518 38,000  Level Vancouver Center
Wed 05:56:15 PM 54.5833 -131.9000 322° Northwest 450 518 38,000  Level Vancouver Center
Wed 05:56:52 PM 54.6333 -131.9500 330° Northwest 450 518 38,000  Level Anchorage Center
Wed 05:57:52 PM 54.7333 -132.0833 322° Northwest 450 518 38,000  Level Anchorage Center
Wed 05:58:52 PM 54.8333 -132.2333 319° Northwest 450 518 38,000  Level Anchorage Center
Wed 05:59:53 PM 54.9167 -132.3833 314° West 450 518 38,000  Level Anchorage Center
Wed 06:00:53 PM 55.0167 -132.5167 323° Northwest 450 518 38,000  Level Anchorage Center
Wed 06:01:53 PM 55.1000 -132.6667 314° West 450 518 38,000  Level Anchorage Center
Wed 06:02:53 PM 55.2000 -132.8000 323° Northwest 450 518 38,000  Level Anchorage Center
Wed 06:03:53 PM 55.3000 -132.9500 320° Northwest 450 518 38,000  Level Anchorage Center
Wed 06:04:53 PM 55.3667 -133.0667 315° West 440 506 38,000  Level Anchorage Center
Wed 06:05:53 PM 55.4667 -133.2167 320° Northwest 450 518 38,000  Level Anchorage Center
Wed 06:06:53 PM 55.5500 -133.3667 315° West 450 518 38,000  Level Anchorage Center
Wed 06:07:53 PM 55.6500 -133.5167 320° Northwest 450 518 38,000  Level Anchorage Center
Wed 06:08:54 PM 55.7500 -133.6667 320° Northwest 460 529 38,000  Level Anchorage Center
Wed 06:09:54 PM 55.8333 -133.8167 315° West 460 529 38,000  Level Anchorage Center
Wed 06:10:54 PM 55.9333 -133.9667 320° Northwest 450 518 38,000  Level Anchorage Center
Wed 06:11:54 PM 56.0167 -134.1167 315° West 460 529 38,000  Level Anchorage Center
Wed 06:12:54 PM 56.1167 -134.2667 320° Northwest 450 518 38,000  Level Anchorage Center
Wed 06:13:54 PM 56.2000 -134.4167 315° West 450 518 38,000  Level Anchorage Center
Wed 06:14:54 PM 56.3000 -134.5833 317° Northwest 460 529 38,000  Level Anchorage Center
Wed 06:15:54 PM 56.3833 -134.7333 315° West 450 518 38,000  Level Anchorage Center
Wed 06:17:54 PM 56.5667 -135.0333 318° Northwest 440 506 38,000  Level Anchorage Center
Wed 06:18:55 PM 56.6500 -135.1833 315° West 450 518 38,000  Level Anchorage Center
Wed 06:19:55 PM 56.7333 -135.3500 312° West 440 506 38,000  Level Anchorage Center
Wed 06:20:55 PM 56.8333 -135.5000 321° Northwest 440 506 38,000  Level Anchorage Center
Wed 06:21:55 PM 56.9167 -135.6667 313° West 430 495 38,000  Level Anchorage Center
Wed 06:22:55 PM 56.9833 -135.8500 304° West 430 495 38,000  Level Anchorage Center
Wed 06:23:55 PM 57.0667 -136.0333 310° West 440 506 38,000  Level Anchorage Center
Wed 06:24:56 PM 57.1333 -136.2167 304° West 440 506 38,000  Level Anchorage Center
Wed 06:25:55 PM 57.2167 -136.3833 313° West 430 495 38,000  Level Anchorage Center
Wed 06:26:55 PM 57.2833 -136.5667 304° West 440 506 38,000  Level Anchorage Center
Wed 06:27:56 PM 57.3667 -136.7500 310° West 430 495 38,000  Level Anchorage Center
Wed 06:28:56 PM 57.4333 -136.9167 307° West 430 495 38,000  Level Anchorage Center
Wed 06:29:56 PM 57.5000 -137.1000 304° West 430 495 38,000  Level Anchorage Center
Wed 06:30:56 PM 57.5833 -137.2833 310° West 430 495 38,000  Level Anchorage Center
Wed 06:31:56 PM 57.6500 -137.4500 307° West 430 495 38,000  Level Anchorage Center
Wed 06:32:56 PM 57.7167 -137.6333 304° West 430 495 38,000  Level Anchorage Center
Wed 06:33:56 PM 57.7833 -137.8167 304° West 420 483 38,000  Level Anchorage Center
Wed 06:34:56 PM 57.8500 -137.9833 307° West 420 483 38,000  Level Anchorage Center
Wed 06:35:56 PM 57.9333 -138.1667 311° West 420 483 38,000  Level Anchorage Center
Wed 06:36:57 PM 58.0000 -138.3500 305° West 420 483 38,000  Level Anchorage Center
Wed 06:37:57 PM 58.0667 -138.5167 307° West 420 483 38,000  Level Anchorage Center
Wed 06:38:56 PM 58.1333 -138.7000 305° West 420 483 38,000  Level Anchorage Center
Wed 06:39:57 PM 58.2000 -138.8833 305° West 410 472 38,000  Level Anchorage Center
Wed 06:40:57 PM 58.2667 -139.0500 307° West 410 472 38,000  Level Anchorage Center
Wed 06:41:57 PM 58.3333 -139.2333 305° West 410 472 38,000  Level Anchorage Center
Wed 06:42:57 PM 58.4000 -139.4167 305° West 410 472 38,000  Level Anchorage Center
Wed 06:43:57 PM 58.4667 -139.6000 305° West 410 472 38,000  Level Anchorage Center
Wed 06:44:57 PM 58.5333 -139.7833 305° West 420 483 38,000  Level Anchorage Center
Wed 06:45:57 PM 58.6000 -139.9667 305° West 410 472 38,000  Level Anchorage Center
Wed 06:46:57 PM 58.6667 -140.1333 308° West 400 460 38,000  Level Anchorage Center
Wed 06:47:57 PM 58.7167 -140.3167 298° West 400 460 38,000  Level Anchorage Center
Wed 06:48:57 PM 58.7833 -140.5000 305° West 400 460 38,000  Level Anchorage Center
Wed 06:49:57 PM 58.8667 -140.6500 317° Northwest 410 472 38,000  Level Anchorage Center
Wed 06:50:58 PM 58.9500 -140.8000 317° Northwest 400 460 38,000  Level Anchorage Center
Wed 06:51:58 PM 59.0333 -140.9500 317° Northwest 400 460 38,000  Level Anchorage Center
Wed 06:52:58 PM 59.1167 -141.1000 317° Northwest 400 460 38,000  Level Anchorage Center
Wed 06:53:58 PM 59.2000 -141.2500 317° Northwest 410 472 38,000  Level Anchorage Center
Wed 06:54:58 PM 59.2833 -141.4000 317° Northwest 400 460 38,000  Level Anchorage Center
Wed 06:55:58 PM 59.3667 -141.5500 318° Northwest 400 460 38,000  Level Anchorage Center
Wed 06:56:58 PM 59.4500 -141.7000 318° Northwest 410 472 38,000  Level Anchorage Center
Wed 06:57:58 PM 59.5333 -141.8500 318° Northwest 400 460 38,000  Level Anchorage Center
Wed 06:58:58 PM 59.6167 -142.0167 315° West 400 460 38,000  Level Anchorage Center
Wed 06:59:58 PM 59.7000 -142.1667 318° Northwest 400 460 38,000  Level Anchorage Center
Wed 07:00:58 PM 59.7833 -142.3167 318° Northwest 400 460 38,000  Level Anchorage Center
Wed 07:01:59 PM 59.8667 -142.4667 318° Northwest 390 449 38,000  Level Anchorage Center
Wed 07:02:58 PM 59.9500 -142.6167 318° Northwest 410 472 38,000  Level Anchorage Center
Wed 07:03:59 PM 60.0167 -142.7667 312° West 390 449 38,000  Level Anchorage Center
Wed 07:04:59 PM 60.1000 -142.9167 318° Northwest 400 460 38,000  Level Anchorage Center
Wed 07:05:59 PM 60.1667 -143.0500 315° West 390 449 38,000  Level Anchorage Center
Wed 07:06:59 PM 60.2500 -143.2000 318° Northwest 410 472 38,000  Level Anchorage Center
Wed 07:07:59 PM 60.3167 -143.3667 309° West 400 460 38,000  Level Anchorage Center
Wed 07:08:59 PM 60.4000 -143.5167 318° Northwest 390 449 38,000  Level Anchorage Center
Wed 07:09:59 PM 60.4833 -143.6667 318° Northwest 380 437 38,000  Level Anchorage Center
Wed 07:10:59 PM 60.5500 -143.8333 309° West 390 449 38,000  Level Anchorage Center
Wed 07:11:59 PM 60.6333 -143.9833 319° Northwest 390 449 38,000  Level Anchorage Center
Wed 07:13:00 PM 60.7000 -144.1500 309° West 380 437 38,000  Level Anchorage Center
Wed 07:14:00 PM 60.7833 -144.3000 319° Northwest 390 449 38,000  Level Anchorage Center
Wed 07:14:59 PM 60.8667 -144.4667 316° Northwest 380 437 38,000  Level Anchorage Center
Wed 07:16:00 PM 60.9333 -144.6167 312° West 390 449 38,000  Level Anchorage Center
Wed 07:17:00 PM 61.0167 -144.7833 316° Northwest 390 449 38,000  Level Anchorage Center
Wed 07:18:00 PM 61.1000 -144.9667 313° West 390 449 38,000  Level Anchorage Center
Wed 07:19:00 PM 61.1667 -145.1333 310° West 380 437 38,000  Level Anchorage Center
Wed 07:20:00 PM 61.2500 -145.2833 319° Northwest 400 460 38,000  Level Anchorage Center
Wed 07:21:00 PM 61.3167 -145.4500 310° West 380 437 38,000  Level Anchorage Center
Wed 07:22:00 PM 61.4000 -145.6167 316° Northwest 380 437 38,000 -50 Level Anchorage Center
Wed 07:23:00 PM 61.4667 -145.7833 310° West 380 437 37,900 -595 Descending Anchorage Center
Wed 07:24:01 PM 61.5333 -145.9333 313° West 370 426 36,800 -1,100 Descending Anchorage Center
Wed 07:25:00 PM 61.6000 -146.1000 310° West 360 414 35,700 -1,000 Descending Anchorage Center
Wed 07:26:01 PM 61.6667 -146.2500 313° West 340 391 34,800 -843 Descending Anchorage Center
Wed 07:27:01 PM 61.7333 -146.3833 317° Northwest 350 403 34,000 -400 Descending Anchorage Center
Wed 07:28:01 PM 61.8167 -146.5500 317° Northwest 360 414 34,000  Level Anchorage Center
Wed 07:29:01 PM 61.8833 -146.7000 313° West 360 414 34,000  Level Anchorage Center
Wed 07:30:01 PM 61.9500 -146.8667 310° West 360 414 34,000  Level Anchorage Center
Wed 07:31:01 PM 62.0000 -147.0000 309° West 360 414 34,000  Level Anchorage Center
Wed 07:32:01 PM 62.0833 -147.1333 323° Northwest 360 414 34,000  Level Anchorage Center
Wed 07:33:01 PM 62.1500 -147.2833 314° West 370 426 34,000  Level Anchorage Center
Wed 07:34:01 PM 62.2500 -147.4500 322° Northwest 380 437 34,000  Level Anchorage Center
Wed 07:35:01 PM 62.3167 -147.6000 314° West 360 414 34,000  Level Anchorage Center
Wed 07:36:02 PM 62.3833 -147.7333 317° Northwest 370 426 34,000  Level Anchorage Center
Wed 07:37:02 PM 62.4667 -147.9000 317° Northwest 370 426 34,000  Level Anchorage Center
Wed 07:38:02 PM 62.5333 -148.0500 314° West 360 414 34,000  Level Anchorage Center
Wed 07:39:02 PM 62.6167 -148.2167 317° Northwest 360 414 34,000  Level Anchorage Center
Wed 07:40:02 PM 62.6833 -148.3500 317° Northwest 380 437 34,000  Level Anchorage Center
Wed 07:41:02 PM 62.7500 -148.5000 314° West 360 414 34,000  Level Anchorage Center
Wed 07:42:02 PM 62.8333 -148.6500 321° Northwest 380 437 34,000  Level Anchorage Center
Wed 07:43:02 PM 62.9000 -148.8167 311° West 370 426 34,000  Level Anchorage Center
Wed 07:44:02 PM 62.9833 -148.9667 321° Northwest 390 449 34,000  Level Anchorage Center
Wed 07:45:02 PM 63.1000 -148.9333 North 410 472 34,000 -694 Level Anchorage Center
Wed 07:46:03 PM 63.2000 -148.8833 13° North 400 460 32,600 -2,132 Descending Anchorage Center
Wed 07:47:03 PM 63.3333 -148.8167 13° North 390 449 29,700 -2,600 Descending Anchorage Center
Wed 07:48:03 PM 63.4333 -148.7500 17° North 400 460 27,400 -2,200 Descending Anchorage Center
Wed 07:49:03 PM 63.5333 -148.7000 13° North 380 437 25,300 -2,150 Descending Anchorage Center
Wed 07:50:03 PM 63.6333 -148.6500 13° North 380 437 23,100 -2,100 Descending Anchorage Center
Wed 07:51:03 PM 63.7333 -148.6000 12° North 360 414 21,100 -2,000 Descending Anchorage Center
Wed 07:52:03 PM 63.8333 -148.5500 12° North 370 426 19,100 -2,200 Descending Anchorage Center
Wed 07:53:03 PM 63.9167 -148.5000 15° North 340 391 16,700 -2,200 Descending Anchorage Center
Wed 07:54:03 PM 64.0333 -148.4333 14° North 350 403 14,700 -2,000 Descending Anchorage Center
Wed 07:56:00 PM 64.2485 -148.3258 12° North  Level FlightAware Approximate
Wed 08:03:00 PM 64.8000 -147.8500 90° East  Level FlightAware Approximate
Wed 08:04:00 PM 64.8151 -147.8564 90° East  Level Estimated
Wed 08:05:00 PM 64.8151 -147.8564 90° East  Level Estimated
Wed 08:06:00 PM 64.8151 -147.8564 90° East  Level Estimated
Wed 08:07:00 PM 64.8151 -147.8564 90° East  Level Estimated
Wed 08:08:00 PM 64.8151 -147.8564 90° East  Level Estimated
Wed 08:09:00 PM 64.8151 -147.8564 90° East  Level Estimated
Wed 08:10:00 PM 64.8151 -147.8564 90° East  Level Estimated
Wed 08:11:00 PM 64.8151 -147.8564 90° East  Level Estimated
Wed 08:12:00 PM 64.8151 -147.8564 90° East  Level Estimated
Wed 08:13:00 PM 64.8151 -147.8564 90° East  Level Estimated
Wed 08:14:00 PM 64.8151 -147.8564 90° East  Level Estimated
Wed 08:15:00 PM 64.8151 -147.8564 90° East  Level Estimated
Wed 08:16:00 PM 64.8151 -147.8564 90° East  Level Estimated
Wed 08:17:00 PM 64.8151 -147.8564 90° East  Level Estimated
Wed 08:18:00 PM 64.8151 -147.8564 90° East  Level Estimated

Login

Don't have an account? Register now (free) for customized features, flight alerts, and more!